Time;durP1;ratioP1;P1;durP2;ratioP2;P2;SDS_P1;SDS_P2;PMS_P1;PMS_P2;Temp;Humidity;BMP_temperature;BMP_pressure;BME280_temperature;BME280_humidity;BME280_pressure;Samples;Min_cycle;Max_cycle;Signal;HPM_P1;HPM_P2
2023/06/20 00:01:55;;;;;;;;;;;;;;;22.17;63.81;100877.75;4138085;28;20016;-69
2023/06/20 00:03:58;;;;;;;;;;;;;;;22.14;63.88;100881.81;4137541;28;20012;-68
2023/06/20 00:06:00;;;;;;;;;;;;;;;22.12;64.03;100878.50;4134094;28;20016;-68
2023/06/20 00:08:02;;;;;;;;;;;;;;;22.10;64.20;100884.25;4137786;28;19983;-68
2023/06/20 00:10:04;;;;;;;;;;;;;;;22.09;64.20;100877.06;4138063;28;20429;-68
2023/06/20 00:12:07;;;;;;;;;;;;;;;22.07;64.46;100875.66;4137773;28;20020;-69
2023/06/20 00:14:12;;;;;;;;;;;;;;;22.04;64.74;100876.19;4137623;28;20024;-69
2023/06/20 00:16:20;;;;;;;;;;;;;;;21.99;65.26;100876.94;4137738;28;20349;-69
2023/06/20 00:18:22;;;;;;;;;;;;;;;21.95;65.50;100881.25;4138511;28;20032;-66
2023/06/20 00:20:25;;;;;;;;;;;;;;;21.92;65.70;100882.56;4136831;28;20044;-69
2023/06/20 00:22:27;;;;;;;;;;;;;;;21.91;65.99;100885.56;4134606;28;19979;-68
2023/06/20 00:24:31;;;;;;;;;;;;;;;21.90;66.14;100882.00;4137208;28;20048;-67
2023/06/20 00:26:33;;;;;;;;;;;;;;;21.88;65.96;100881.41;4136794;28;20052;-69
2023/06/20 00:28:35;;;;;;;;;;;;;;;21.86;66.13;100882.75;4135999;28;20017;-68
2023/06/20 00:30:37;;;;;;;;;;;;;;;21.85;66.32;100884.66;4133976;28;20020;-68
2023/06/20 00:32:38;;;;;;;;;;;;;;;21.83;66.59;100878.56;4137090;28;20456;-68
2023/06/20 00:34:39;;;;;;;;;;;;;;;21.80;66.60;100883.75;4136488;28;19925;-67
2023/06/20 00:36:45;;;;;;;;;;;;;;;21.74;66.90;100880.91;4136984;28;20028;-68
2023/06/20 00:38:48;;;;;;;;;;;;;;;21.70;67.17;100876.97;4133206;28;20020;-68
2023/06/20 00:40:52;;;;;;;;;;;;;;;21.68;67.03;100881.06;4136037;28;20563;-69
2023/06/20 00:42:54;;;;;;;;;;;;;;;21.67;67.13;100874.72;4119733;28;20021;-68
2023/06/20 00:44:56;;;;;;;;;;;;;;;21.68;67.22;100873.66;4136772;28;20017;-68
2023/06/20 00:46:58;;;;;;;;;;;;;;;21.68;66.90;100870.91;4136635;28;20016;-68
2023/06/20 00:49:00;;;;;;;;;;;;;;;21.68;66.94;100870.91;4136700;28;20345;-66
2023/06/20 00:51:02;;;;;;;;;;;;;;;21.67;66.85;100866.47;4136085;28;20008;-67
2023/06/20 00:53:06;;;;;;;;;;;;;;;21.69;66.86;100860.72;4130868;28;20337;-67
2023/06/20 00:55:08;;;;;;;;;;;;;;;21.69;66.57;100864.34;4136865;28;20044;-65
2023/06/20 00:57:11;;;;;;;;;;;;;;;21.71;66.49;100858.59;4134427;28;20014;-70
2023/06/20 00:59:13;;;;;;;;;;;;;;;21.72;66.58;100861.09;4136813;28;20012;-68
2023/06/20 01:01:16;;;;;;;;;;;;;;;21.69;66.35;100857.97;4130311;28;20056;-67
2023/06/20 01:03:18;;;;;;;;;;;;;;;21.67;66.10;100854.66;4131894;28;19930;-69
2023/06/20 01:05:27;;;;;;;;;;;;;;;21.66;66.48;100862.09;4135453;28;20024;-68
2023/06/20 01:07:30;;;;;;;;;;;;;;;21.64;67.04;100850.47;4136000;28;20032;-70
2023/06/20 01:09:38;;;;;;;;;;;;;;;21.63;67.23;100846.09;4134964;28;20009;-69
2023/06/20 01:11:43;;;;;;;;;;;;;;;21.60;67.23;100839.16;4136549;28;20439;-69
2023/06/20 01:13:47;;;;;;;;;;;;;;;21.57;67.12;100839.66;4135640;28;20029;-69
2023/06/20 01:15:51;;;;;;;;;;;;;;;21.57;67.42;100828.66;4132865;28;20548;-69
2023/06/20 01:17:56;;;;;;;;;;;;;;;21.57;67.34;100830.59;4135250;28;20029;-69
2023/06/20 01:20:12;;;;;;;;;;;;;;;21.56;67.13;100832.47;4136506;28;20344;-68
2023/06/20 01:22:16;;;;;;;;;;;;;;;21.54;66.74;100837.41;4138202;28;20009;-69
2023/06/20 01:24:20;;;;;;;;;;;;;;;21.53;66.62;100843.16;4138447;28;19937;-69
2023/06/20 01:26:25;;;;;;;;;;;;;;;21.52;66.25;100842.31;4140564;28;20016;-68
2023/06/20 01:28:28;;;;;;;;;;;;;;;21.52;66.72;100846.97;4140156;28;20025;-69
2023/06/20 01:30:33;;;;;;;;;;;;;;;21.48;66.94;100846.59;4129548;28;20024;-70
2023/06/20 01:32:38;;;;;;;;;;;;;;;21.41;67.19;100838.53;4138711;28;20044;-69
2023/06/20 01:34:44;;;;;;;;;;;;;;;21.36;67.57;100837.59;4136408;28;20480;-68
2023/06/20 01:36:48;;;;;;;;;;;;;;;21.32;67.61;100830.94;4139971;28;20021;-69
2023/06/20 01:38:51;;;;;;;;;;;;;;;21.29;67.82;100828.69;4137859;28;20028;-69
2023/06/20 01:40:54;;;;;;;;;;;;;;;21.30;67.60;100833.06;4139061;28;20021;-69
2023/06/20 01:42:58;;;;;;;;;;;;;;;21.29;67.73;100835.00;4138606;28;20033;-67
2023/06/20 01:45:00;;;;;;;;;;;;;;;21.26;67.72;100824.50;4135033;28;20396;-69
2023/06/20 01:47:02;;;;;;;;;;;;;;;21.24;67.68;100823.94;4139853;28;20021;-68
2023/06/20 01:49:06;;;;;;;;;;;;;;;21.22;67.48;100828.81;4138518;28;21535;-69
2023/06/20 01:51:09;;;;;;;;;;;;;;;21.21;67.53;100827.97;4134406;28;20060;-69
2023/06/20 01:53:12;;;;;;;;;;;;;;;21.20;67.58;100826.31;4136665;28;20024;-68
2023/06/20 01:55:14;;;;;;;;;;;;;;;21.21;67.45;100824.41;4139630;28;20025;-68
2023/06/20 01:57:19;;;;;;;;;;;;;;;21.21;67.86;100822.50;4122461;28;20025;-70
2023/06/20 01:59:23;;;;;;;;;;;;;;;21.21;67.68;100818.91;4135030;28;20427;-68
2023/06/20 02:01:25;;;;;;;;;;;;;;;21.21;67.97;100827.16;4122538;28;20017;-69
2023/06/20 02:03:27;;;;;;;;;;;;;;;21.20;67.91;100834.53;4122747;28;20053;-69
2023/06/20 02:05:31;;;;;;;;;;;;;;;21.21;67.90;100825.25;4137556;28;19976;-69
2023/06/20 02:07:33;;;;;;;;;;;;;;;21.22;67.99;100835.16;4133707;28;20016;-69
2023/06/20 02:09:37;;;;;;;;;;;;;;;21.24;67.99;100822.00;4139257;28;20020;-69
2023/06/20 02:11:41;;;;;;;;;;;;;;;21.26;67.94;100827.25;4138562;28;20016;-67
2023/06/20 02:13:45;;;;;;;;;;;;;;;21.24;67.76;100819.25;4138263;28;20114;-69
2023/06/20 02:15:47;;;;;;;;;;;;;;;21.23;67.71;100814.84;4136196;28;20672;-68
2023/06/20 02:17:49;;;;;;;;;;;;;;;21.23;67.66;100820.31;4122343;28;20465;-68
2023/06/20 02:19:51;;;;;;;;;;;;;;;21.21;67.95;100825.25;4138797;28;20047;-68
2023/06/20 02:21:53;;;;;;;;;;;;;;;21.21;67.70;100817.00;4138007;28;20043;-69
2023/06/20 02:23:55;;;;;;;;;;;;;;;21.26;67.28;100820.94;4140119;28;20027;-69
2023/06/20 02:25:57;;;;;;;;;;;;;;;21.29;67.43;100821.25;4136922;28;20499;-68
2023/06/20 02:27:59;;;;;;;;;;;;;;;21.30;67.21;100808.34;4139513;28;20020;-69
2023/06/20 02:30:03;;;;;;;;;;;;;;;21.30;67.39;100811.97;4139202;28;20020;-69
2023/06/20 02:32:05;;;;;;;;;;;;;;;21.33;67.16;100810.59;4135383;28;20374;-67
2023/06/20 02:34:08;;;;;;;;;;;;;;;21.31;67.07;100813.59;4138747;28;20021;-67
2023/06/20 02:36:10;;;;;;;;;;;;;;;21.30;67.20;100813.84;4137085;28;20024;-68
2023/06/20 02:38:12;;;;;;;;;;;;;;;21.27;67.21;100814.34;4138790;28;20025;-68
2023/06/20 02:40:14;;;;;;;;;;;;;;;21.25;67.56;100809.09;4121822;28;20028;-68
2023/06/20 02:42:16;;;;;;;;;;;;;;;21.24;67.55;100816.50;4128487;28;20499;-69
2023/06/20 02:44:18;;;;;;;;;;;;;;;21.22;67.58;100821.44;4137172;28;20460;-68
2023/06/20 02:46:23;;;;;;;;;;;;;;;21.21;67.80;100822.50;4139708;28;20036;-68
2023/06/20 02:48:26;;;;;;;;;;;;;;;21.22;67.95;100823.31;4138847;28;20028;-68
2023/06/20 02:50:30;;;;;;;;;;;;;;;21.20;68.27;100828.22;4128873;28;20386;-69
2023/06/20 02:52:34;;;;;;;;;;;;;;;21.18;68.28;100824.91;4139269;28;20025;-68
2023/06/20 02:54:38;;;;;;;;;;;;;;;21.18;68.29;100833.97;4137296;28;20406;-68
2023/06/20 02:56:41;;;;;;;;;;;;;;;21.18;68.65;100831.22;4137754;28;20008;-69
2023/06/20 02:58:45;;;;;;;;;;;;;;;21.18;68.55;100830.41;4138655;28;20036;-67
2023/06/20 03:00:49;;;;;;;;;;;;;;;21.17;68.57;100825.97;4137474;28;20013;-68
2023/06/20 03:02:55;;;;;;;;;;;;;;;21.15;68.68;100828.97;4138517;28;20472;-67
2023/06/20 03:04:59;;;;;;;;;;;;;;;21.14;68.77;100827.28;4137308;28;20238;-69
2023/06/20 03:07:02;;;;;;;;;;;;;;;21.13;68.52;100831.13;4137235;28;20390;-69
2023/06/20 03:09:04;;;;;;;;;;;;;;;21.12;68.75;100834.13;4117014;28;20866;-68
2023/06/20 03:11:08;;;;;;;;;;;;;;;21.09;68.79;100834.63;4136819;28;20017;-68
2023/06/20 03:13:14;;;;;;;;;;;;;;;21.08;69.03;100836.50;4136777;28;20596;-68
2023/06/20 03:15:16;;;;;;;;;;;;;;;21.06;69.02;100835.94;4136607;28;20013;-68
2023/06/20 03:17:18;;;;;;;;;;;;;;;21.07;68.88;100845.84;4136538;28;20333;-68
2023/06/20 03:19:22;;;;;;;;;;;;;;;21.05;69.07;100843.34;4136464;28;20073;-67
2023/06/20 03:21:27;;;;;;;;;;;;;;;21.07;69.16;100840.34;4137224;28;20024;-68
2023/06/20 03:23:31;;;;;;;;;;;;;;;21.09;69.25;100849.16;4136913;28;20017;-68
2023/06/20 03:25:33;;;;;;;;;;;;;;;21.11;69.20;100855.25;4120683;28;20009;-67
2023/06/20 03:27:35;;;;;;;;;;;;;;;21.10;69.51;100853.59;4138502;28;20044;-69
2023/06/20 03:29:37;;;;;;;;;;;;;;;21.11;69.10;100855.25;4121532;28;20056;-68
2023/06/20 03:31:39;;;;;;;;;;;;;;;21.11;69.24;100860.72;4136356;28;20025;-68
2023/06/20 03:33:41;;;;;;;;;;;;;;;21.11;69.26;100859.91;4136960;28;20016;-69
2023/06/20 03:35:45;;;;;;;;;;;;;;;21.12;69.80;100858.84;4136742;28;20037;-68
2023/06/20 03:37:47;;;;;;;;;;;;;;;21.15;69.67;100861.09;4121048;28;20020;-68
2023/06/20 03:39:50;;;;;;;;;;;;;;;21.16;69.72;100860.84;4118789;28;20021;-69
2023/06/20 03:41:52;;;;;;;;;;;;;;;21.18;69.92;100858.69;4133242;28;20036;-68
2023/06/20 03:43:56;;;;;;;;;;;;;;;21.20;69.95;100867.50;4136422;28;20700;-69
2023/06/20 03:45:59;;;;;;;;;;;;;;;21.21;70.13;100857.38;4137800;28;20016;-68
2023/06/20 03:48:01;;;;;;;;;;;;;;;21.23;69.93;100863.44;4135770;28;20033;-68
2023/06/20 03:50:04;;;;;;;;;;;;;;;21.22;70.15;100859.03;4120323;28;20005;-69
2023/06/20 03:52:08;;;;;;;;;;;;;;;21.22;70.23;100859.88;4137413;28;20020;-68
2023/06/20 03:54:11;;;;;;;;;;;;;;;21.22;70.47;100861.78;4130561;28;20044;-68
2023/06/20 03:56:13;;;;;;;;;;;;;;;21.22;70.44;100854.38;4136843;28;20024;-67
2023/06/20 03:58:16;;;;;;;;;;;;;;;21.23;70.66;100861.53;4135682;28;20012;-65
2023/06/20 04:00:19;;;;;;;;;;;;;;;21.23;70.80;100861.53;4136335;28;20032;-66
2023/06/20 04:02:21;;;;;;;;;;;;;;;21.24;70.73;100865.94;4137886;28;20020;-67
2023/06/20 04:04:23;;;;;;;;;;;;;;;21.27;70.92;100863.78;4120324;28;20025;-67
2023/06/20 04:06:29;;;;;;;;;;;;;;;21.29;70.81;100858.91;4136050;28;20431;-66
2023/06/20 04:08:35;;;;;;;;;;;;;;;21.29;70.78;100856.97;4134883;28;20499;-66
2023/06/20 04:10:38;;;;;;;;;;;;;;;21.30;70.84;100864.16;4137424;28;20017;-66
2023/06/20 04:12:40;;;;;;;;;;;;;;;21.31;70.97;100864.97;4134219;28;20025;-66
2023/06/20 04:14:42;;;;;;;;;;;;;;;21.33;70.86;100868.28;4137536;28;20028;-66
2023/06/20 04:16:47;;;;;;;;;;;;;;;21.36;70.69;100878.78;4138636;28;20177;-66
2023/06/20 04:18:49;;;;;;;;;;;;;;;21.38;70.72;100873.91;4137115;28;20032;-66
2023/06/20 04:20:51;;;;;;;;;;;;;;;21.39;70.69;100873.66;4138189;28;20052;-66
2023/06/20 04:22:53;;;;;;;;;;;;;;;21.42;70.68;100873.13;4138120;28;20024;-65
2023/06/20 04:24:56;;;;;;;;;;;;;;;21.42;70.63;100870.41;4137919;28;20363;-65
2023/06/20 04:26:58;;;;;;;;;;;;;;;21.42;70.52;100869.56;4121278;28;20017;-66
2023/06/20 04:29:01;;;;;;;;;;;;;;;21.42;70.79;100870.41;4119254;28;19930;-66
2023/06/20 04:31:06;;;;;;;;;;;;;;;21.44;70.94;100875.63;4119733;28;20021;-65
2023/06/20 04:33:08;;;;;;;;;;;;;;;21.45;70.84;100877.31;4135129;28;20024;-66
2023/06/20 04:35:11;;;;;;;;;;;;;;;21.45;70.61;100866.31;4135622;28;20144;-68
2023/06/20 04:37:14;;;;;;;;;;;;;;;21.48;70.81;100874.09;4135990;28;20393;-66
2023/06/20 04:39:17;;;;;;;;;;;;;;;21.52;70.64;100877.19;4135589;28;20053;-64
2023/06/20 04:41:20;;;;;;;;;;;;;;;21.54;70.49;100878.63;4137373;28;20012;-66
2023/06/20 04:43:23;;;;;;;;;;;;;;;21.55;70.34;100883.03;4135712;28;20040;-66
2023/06/20 04:45:25;;;;;;;;;;;;;;;21.56;70.22;100875.63;4137008;28;20013;-66
2023/06/20 04:47:27;;;;;;;;;;;;;;;21.57;69.99;100880.06;4120608;28;20036;-65
2023/06/20 04:49:29;;;;;;;;;;;;;;;21.57;69.74;100885.56;4119333;28;20021;-66
2023/06/20 04:51:31;;;;;;;;;;;;;;;21.57;69.89;100891.03;4120489;28;20448;-66
2023/06/20 04:53:33;;;;;;;;;;;;;;;21.56;69.90;100884.69;4136890;28;20029;-66
2023/06/20 04:55:38;;;;;;;;;;;;;;;21.54;69.97;100878.63;4138837;28;20400;-65
2023/06/20 04:57:42;;;;;;;;;;;;;;;21.55;70.26;100884.94;4138927;28;20020;-66
2023/06/20 04:59:46;;;;;;;;;;;;;;;21.57;70.10;100882.81;4139290;28;20849;-66
2023/06/20 05:01:51;;;;;;;;;;;;;;;21.58;70.03;100881.69;4138777;28;20107;-66
2023/06/20 05:03:55;;;;;;;;;;;;;;;21.58;70.01;100885.31;4138122;28;20024;-66
2023/06/20 05:05:58;;;;;;;;;;;;;;;21.59;70.02;100892.44;4124051;28;20009;-67
2023/06/20 05:08:00;;;;;;;;;;;;;;;21.59;70.09;100892.44;4139074;28;20120;-66
2023/06/20 05:10:02;;;;;;;;;;;;;;;21.64;69.94;100896.38;4140562;28;20457;-66
2023/06/20 05:12:05;;;;;;;;;;;;;;;21.66;70.07;100900.56;4139732;28;20012;-66
2023/06/20 05:14:08;;;;;;;;;;;;;;;21.69;69.55;100899.22;4138520;28;20016;-64
2023/06/20 05:16:10;;;;;;;;;;;;;;;21.70;69.26;100906.38;4140545;28;20099;-67
2023/06/20 05:18:12;;;;;;;;;;;;;;;21.71;69.21;100903.38;4140283;28;20147;-66
2023/06/20 05:20:14;;;;;;;;;;;;;;;21.71;69.12;100908.06;4140022;28;20424;-66
2023/06/20 05:22:18;;;;;;;;;;;;;;;21.72;69.19;100902.31;4123986;28;20037;-66
2023/06/20 05:24:20;;;;;;;;;;;;;;;21.74;69.11;100902.03;4123376;28;20018;-65
2023/06/20 05:26:22;;;;;;;;;;;;;;;21.76;69.22;100897.16;4138659;28;20372;-65
2023/06/20 05:28:24;;;;;;;;;;;;;;;21.78;69.41;100903.22;4140111;28;20024;-65
2023/06/20 05:30:28;;;;;;;;;;;;;;;21.81;69.05;100905.47;4139748;28;19930;-66
2023/06/20 05:32:30;;;;;;;;;;;;;;;21.83;69.16;100902.47;4138854;28;20013;-66
2023/06/20 05:34:34;;;;;;;;;;;;;;;21.85;68.81;100906.66;4137497;28;20009;-68
2023/06/20 05:36:38;;;;;;;;;;;;;;;21.86;68.80;100902.81;4134492;28;19964;-65
2023/06/20 05:38:40;;;;;;;;;;;;;;;21.89;68.65;100907.00;4138220;28;19972;-66
2023/06/20 05:40:42;;;;;;;;;;;;;;;21.89;68.78;100910.56;4129336;28;20025;-66
2023/06/20 05:42:44;;;;;;;;;;;;;;;21.90;68.60;100903.16;4139742;28;20017;-66
2023/06/20 05:44:46;;;;;;;;;;;;;;;21.89;68.42;100905.06;4140193;28;20369;-67
2023/06/20 05:46:49;;;;;;;;;;;;;;;21.91;68.21;100905.66;4138150;28;20017;-66
2023/06/20 05:48:51;;;;;;;;;;;;;;;21.93;68.16;100916.41;4137418;28;20028;-65
2023/06/20 05:50:53;;;;;;;;;;;;;;;21.94;67.93;100907.94;4122986;28;19958;-65
2023/06/20 05:52:55;;;;;;;;;;;;;;;21.97;67.60;100912.06;4139197;28;20020;-65
2023/06/20 05:54:58;;;;;;;;;;;;;;;21.99;67.56;100920.06;4138662;28;20024;-65
2023/06/20 05:56:59;;;;;;;;;;;;;;;22.00;67.55;100911.56;4139141;28;20017;-64
2023/06/20 05:59:03;;;;;;;;;;;;;;;22.00;67.72;100908.81;4138838;28;20021;-65
2023/06/20 06:01:05;;;;;;;;;;;;;;;22.01;67.79;100909.69;4139467;28;20021;-64
2023/06/20 06:03:10;;;;;;;;;;;;;;;22.02;67.81;100917.69;4139707;28;20044;-64
2023/06/20 06:05:12;;;;;;;;;;;;;;;22.04;67.95;100920.19;4138235;28;20016;-64
2023/06/20 06:07:14;;;;;;;;;;;;;;;22.06;67.77;100915.25;4139224;28;20028;-65
2023/06/20 06:09:19;;;;;;;;;;;;;;;22.08;67.82;100915.84;4138691;28;20034;-65
2023/06/20 06:11:21;;;;;;;;;;;;;;;22.11;67.90;100910.66;4137299;28;20399;-66
2023/06/20 06:13:23;;;;;;;;;;;;;;;22.15;67.79;100919.25;4139232;28;20004;-67
2023/06/20 06:15:25;;;;;;;;;;;;;;;22.17;67.73;100919.84;4138224;28;20023;-67
2023/06/20 06:17:28;;;;;;;;;;;;;;;22.20;67.54;100926.75;4139011;28;20033;-66
2023/06/20 06:19:31;;;;;;;;;;;;;;;22.22;67.42;100919.91;4139313;28;20422;-66
2023/06/20 06:21:33;;;;;;;;;;;;;;;22.26;67.41;100918.34;4135889;28;20371;-66
2023/06/20 06:23:35;;;;;;;;;;;;;;;22.30;67.64;100915.94;4138928;28;20023;-66
2023/06/20 06:25:37;;;;;;;;;;;;;;;22.33;67.53;100920.13;4138663;28;20038;-65
2023/06/20 06:27:40;;;;;;;;;;;;;;;22.36;67.52;100917.69;4138025;28;20021;-65
2023/06/20 06:29:42;;;;;;;;;;;;;;;22.41;67.29;100925.19;4138383;28;20024;-65
2023/06/20 06:31:44;;;;;;;;;;;;;;;22.43;67.03;100917.50;4138495;28;20041;-66
2023/06/20 06:33:46;;;;;;;;;;;;;;;22.45;66.87;100918.94;4138914;28;20025;-65
2023/06/20 06:35:49;;;;;;;;;;;;;;;22.47;67.00;100916.75;4137381;28;20638;-65
2023/06/20 06:37:52;;;;;;;;;;;;;;;22.51;66.97;100928.09;4136602;28;20020;-65
2023/06/20 06:39:54;;;;;;;;;;;;;;;22.54;66.68;100924.84;4137861;28;20021;-65
2023/06/20 06:41:56;;;;;;;;;;;;;;;22.57;66.33;100918.84;4138626;28;20023;-64
2023/06/20 06:43:58;;;;;;;;;;;;;;;22.59;66.38;100921.34;4137531;28;20366;-65
2023/06/20 06:46:02;;;;;;;;;;;;;;;22.60;66.40;100918.34;4137809;28;20451;-65
2023/06/20 06:48:05;;;;;;;;;;;;;;;22.62;65.83;100912.59;4139389;28;20027;-65
2023/06/20 06:50:07;;;;;;;;;;;;;;;22.64;65.85;100915.91;4138631;28;20530;-65
2023/06/20 06:52:10;;;;;;;;;;;;;;;22.66;65.73;100916.47;4137966;28;19929;-64
2023/06/20 06:54:12;;;;;;;;;;;;;;;22.69;65.95;100915.97;4133053;28;20016;-65
2023/06/20 06:56:14;;;;;;;;;;;;;;;22.73;65.56;100919.03;4138506;28;20012;-65
2023/06/20 06:58:17;;;;;;;;;;;;;;;22.76;65.36;100915.78;4138012;28;20025;-65
2023/06/20 07:00:22;;;;;;;;;;;;;;;22.80;65.18;100919.69;4138107;28;20024;-65
2023/06/20 07:02:26;;;;;;;;;;;;;;;22.83;64.46;100916.44;4138907;28;20024;-65
2023/06/20 07:04:28;;;;;;;;;;;;;;;22.86;64.23;100914.00;4136593;28;20016;-66
2023/06/20 07:06:30;;;;;;;;;;;;;;;22.90;63.97;100913.47;4138702;28;20659;-65
2023/06/20 07:08:33;;;;;;;;;;;;;;;22.95;63.90;100914.41;4121767;28;20029;-65
2023/06/20 07:10:35;;;;;;;;;;;;;;;22.98;63.38;100913.88;4133967;28;20020;-67
2023/06/20 07:12:37;;;;;;;;;;;;;;;23.01;63.29;100910.63;4138215;28;20581;-65
2023/06/20 07:14:39;;;;;;;;;;;;;;;23.03;63.25;100910.38;4138264;28;20056;-65
2023/06/20 07:16:42;;;;;;;;;;;;;;;23.04;63.55;100917.56;4137447;28;20111;-65
2023/06/20 07:18:44;;;;;;;;;;;;;;;23.04;62.99;100899.09;4137646;28;20028;-64
2023/06/20 07:20:46;;;;;;;;;;;;;;;23.08;62.87;100915.09;4135716;28;20423;-65
2023/06/20 07:22:51;;;;;;;;;;;;;;;23.09;62.96;100906.63;4137112;28;19970;-64
2023/06/20 07:24:54;;;;;;;;;;;;;;;23.11;62.74;100909.13;4137907;28;20021;-67
2023/06/20 07:26:56;;;;;;;;;;;;;;;23.13;62.65;100909.69;4131805;28;20025;-64
2023/06/20 07:28:58;;;;;;;;;;;;;;;23.14;62.61;100901.16;4136743;28;20008;-65
2023/06/20 07:31:00;;;;;;;;;;;;;;;23.15;62.05;100902.84;4138029;28;20027;-65
2023/06/20 07:33:02;;;;;;;;;;;;;;;23.17;62.45;100908.09;4137679;28;19960;-63
2023/06/20 07:35:05;;;;;;;;;;;;;;;23.18;62.34;100915.25;4137600;28;20053;-65
2023/06/20 07:37:07;;;;;;;;;;;;;;;23.19;62.15;100906.72;4136844;28;20024;-65
2023/06/20 07:39:09;;;;;;;;;;;;;;;23.21;62.24;100909.22;4136595;28;20016;-65
2023/06/20 07:41:12;;;;;;;;;;;;;;;23.22;62.04;100908.16;4138743;28;20016;-65
2023/06/20 07:43:14;;;;;;;;;;;;;;;23.23;61.63;100908.97;4138216;28;20021;-65
2023/06/20 07:45:17;;;;;;;;;;;;;;;23.24;61.76;100914.22;4137958;28;20020;-65
2023/06/20 07:47:19;;;;;;;;;;;;;;;23.25;61.41;100913.13;4137211;28;20029;-66
2023/06/20 07:49:21;;;;;;;;;;;;;;;23.27;61.47;100913.72;4137725;28;20016;-65
2023/06/20 07:51:23;;;;;;;;;;;;;;;23.29;61.40;100922.56;4138056;28;20056;-65
2023/06/20 07:53:25;;;;;;;;;;;;;;;23.31;61.58;100925.06;4138139;28;20411;-65
2023/06/20 07:55:27;;;;;;;;;;;;;;;23.32;61.21;100923.97;4138362;28;20464;-64
2023/06/20 07:57:30;;;;;;;;;;;;;;;23.33;61.42;100920.13;4136168;28;20037;-65
2023/06/20 07:59:32;;;;;;;;;;;;;;;23.35;61.07;100913.28;4138091;28;20036;-67
2023/06/20 08:01:35;;;;;;;;;;;;;;;23.37;60.85;100913.00;4135328;28;20029;-64
2023/06/20 08:03:37;;;;;;;;;;;;;;;23.39;61.02;100917.16;4137601;28;20024;-64
2023/06/20 08:05:39;;;;;;;;;;;;;;;23.43;61.03;100925.72;4136051;28;20012;-64
2023/06/20 08:07:41;;;;;;;;;;;;;;;23.45;60.59;100918.06;4137182;28;20017;-64
2023/06/20 08:09:43;;;;;;;;;;;;;;;23.48;60.60;100924.97;4135181;28;20401;-64
2023/06/20 08:11:46;;;;;;;;;;;;;;;23.49;60.63;100929.38;4137847;28;20028;-65
2023/06/20 08:13:49;;;;;;;;;;;;;;;23.52;60.30;100926.13;4138638;28;19929;-65
2023/06/20 08:15:51;;;;;;;;;;;;;;;23.53;60.18;100920.34;4136415;28;20391;-65
2023/06/20 08:17:53;;;;;;;;;;;;;;;23.54;60.46;100918.41;4138042;28;20033;-64
2023/06/20 08:19:58;;;;;;;;;;;;;;;23.55;60.72;100922.84;4138378;28;20368;-65
2023/06/20 08:22:00;;;;;;;;;;;;;;;23.57;60.98;100926.16;4136450;28;20024;-64
2023/06/20 08:24:02;;;;;;;;;;;;;;;23.57;60.64;100924.25;4137307;28;20374;-67
2023/06/20 08:26:04;;;;;;;;;;;;;;;23.57;60.64;100928.91;4136717;28;20025;-66
2023/06/20 08:28:07;;;;;;;;;;;;;;;23.57;60.44;100928.91;4137330;28;20024;-65
2023/06/20 08:30:11;;;;;;;;;;;;;;;23.57;60.18;100934.44;4137311;28;20028;-65
2023/06/20 08:32:14;;;;;;;;;;;;;;;23.57;60.13;100937.19;4137399;28;20539;-64
2023/06/20 08:34:16;;;;;;;;;;;;;;;23.57;60.16;100928.91;4137814;28;20346;-65
2023/06/20 08:36:20;;;;;;;;;;;;;;;23.58;60.48;100931.41;4136652;28;20526;-66
2023/06/20 08:38:22;;;;;;;;;;;;;;;23.60;60.33;100933.09;4137210;28;20016;-65
2023/06/20 08:40:25;;;;;;;;;;;;;;;23.60;60.29;100933.91;4137950;28;20009;-65
2023/06/20 08:42:29;;;;;;;;;;;;;;;23.63;60.20;100932.56;4136890;28;20032;-65
2023/06/20 08:44:33;;;;;;;;;;;;;;;23.63;60.09;100924.28;4136813;28;20021;-66
2023/06/20 08:46:38;;;;;;;;;;;;;;;23.64;59.96;100926.78;4137350;28;20017;-67
2023/06/20 08:48:41;;;;;;;;;;;;;;;23.64;60.01;100915.78;4137992;28;20024;-65
2023/06/20 08:50:47;;;;;;;;;;;;;;;23.66;59.97;100926.53;4137081;28;20036;-66
2023/06/20 08:52:49;;;;;;;;;;;;;;;23.66;59.79;100929.28;4137544;28;20474;-66
2023/06/20 08:54:55;;;;;;;;;;;;;;;23.65;59.94;100928.47;4136833;28;20448;-65
2023/06/20 08:56:57;;;;;;;;;;;;;;;23.67;59.99;100934.56;4137945;28;20381;-65
2023/06/20 08:58:59;;;;;;;;;;;;;;;23.67;60.31;100945.56;4136507;28;20026;-64
2023/06/20 09:01:01;;;;;;;;;;;;;;;23.67;60.31;100945.56;4137759;28;20028;-65
2023/06/20 09:03:06;;;;;;;;;;;;;;;23.69;61.39;100964.63;4136930;28;20020;-65
2023/06/20 09:05:08;;;;;;;;;;;;;;;23.70;61.32;100974.56;4136357;28;20416;-65
2023/06/20 09:07:17;;;;;;;;;;;;;;;23.70;61.61;100983.66;4136884;28;20408;-64
2023/06/20 09:09:19;;;;;;;;;;;;;;;23.73;63.05;101007.09;4135537;28;20024;-65
2023/06/20 09:11:24;;;;;;;;;;;;;;;23.73;63.07;101018.13;4136962;28;20037;-64
2023/06/20 09:13:29;;;;;;;;;;;;;;;23.69;63.80;101028.84;4120767;28;20024;-67
2023/06/20 09:15:31;;;;;;;;;;;;;;;23.64;64.41;101036.25;4136584;28;20020;-66
2023/06/20 09:17:33;;;;;;;;;;;;;;;23.58;64.57;101049.13;4137176;28;20028;-65
2023/06/20 09:19:43;;;;;;;;;;;;;;;23.56;64.61;101054.91;4136590;28;20017;-66
2023/06/20 09:21:45;;;;;;;;;;;;;;;23.56;65.35;101056.84;4136752;28;20016;-66
2023/06/20 09:23:48;;;;;;;;;;;;;;;23.54;65.79;101059.00;4137753;28;20036;-65
2023/06/20 09:25:50;;;;;;;;;;;;;;;23.51;66.07;101084.31;4136611;28;20459;-66
2023/06/20 09:27:52;;;;;;;;;;;;;;;23.45;66.21;101074.31;4136522;28;20024;-65
2023/06/20 09:29:56;;;;;;;;;;;;;;;23.42;67.68;101074.81;4136554;28;20016;-65
2023/06/20 09:31:58;;;;;;;;;;;;;;;23.33;66.65;101069.75;4133384;28;20020;-64
2023/06/20 09:34:00;;;;;;;;;;;;;;;23.28;66.87;101069.69;4137064;28;20061;-64
2023/06/20 09:36:12;;;;;;;;;;;;;;;23.21;67.52;101066.28;4136201;28;19930;-64
2023/06/20 09:38:14;;;;;;;;;;;;;;;23.17;68.71;101078.91;4136954;28;20013;-65
2023/06/20 09:40:17;;;;;;;;;;;;;;;23.14;68.87;101076.66;4136163;28;20444;-64
2023/06/20 09:42:20;;;;;;;;;;;;;;;23.10;69.32;101069.97;4138298;28;20484;-65
2023/06/20 09:44:25;;;;;;;;;;;;;;;23.06;69.04;101079.78;4139526;28;20029;-64
2023/06/20 09:46:27;;;;;;;;;;;;;;;23.03;68.72;101076.47;4139767;28;20476;-65
2023/06/20 09:48:29;;;;;;;;;;;;;;;23.01;69.10;101077.81;4140130;28;20032;-66
2023/06/20 09:50:31;;;;;;;;;;;;;;;22.96;69.47;101084.06;4138997;28;20012;-65
2023/06/20 09:52:34;;;;;;;;;;;;;;;22.89;70.05;101080.66;4135450;28;20028;-65
2023/06/20 09:54:37;;;;;;;;;;;;;;;22.86;70.56;101073.72;4137767;28;20048;-65
2023/06/20 09:56:40;;;;;;;;;;;;;;;22.86;70.80;101067.38;4137828;28;20491;-65
2023/06/20 09:58:45;;;;;;;;;;;;;;;22.85;71.46;101066.56;4140083;28;20033;-64
2023/06/20 10:00:47;;;;;;;;;;;;;;;22.84;72.02;101064.88;4137652;28;20017;-66
2023/06/20 10:02:49;;;;;;;;;;;;;;;22.83;72.46;101062.38;4139707;28;20020;-66
2023/06/20 10:04:51;;;;;;;;;;;;;;;22.80;73.54;101058.19;4138305;28;20060;-65
2023/06/20 10:06:53;;;;;;;;;;;;;;;22.79;74.06;101052.94;4140674;28;20025;-65
2023/06/20 10:08:57;;;;;;;;;;;;;;;22.78;74.35;101062.31;4140063;28;20098;-65
2023/06/20 10:10:59;;;;;;;;;;;;;;;22.76;74.59;101053.44;4139763;28;20013;-66
2023/06/20 10:13:01;;;;;;;;;;;;;;;22.73;75.47;101053.94;4139648;28;20447;-64
2023/06/20 10:15:03;;;;;;;;;;;;;;;22.70;75.86;101052.53;4138849;28;20012;-66
2023/06/20 10:17:06;;;;;;;;;;;;;;;22.68;76.31;101049.22;4139383;28;20016;-67
2023/06/20 10:19:17;;;;;;;;;;;;;;;22.65;76.43;101046.97;4138809;28;20025;-65
2023/06/20 10:21:19;;;;;;;;;;;;;;;22.62;77.17;101047.47;4139985;28;21320;-64
2023/06/20 10:23:22;;;;;;;;;;;;;;;22.60;77.63;101042.22;4135703;28;20436;-64
2023/06/20 10:25:26;;;;;;;;;;;;;;;22.57;78.29;101047.34;4138901;28;20005;-65
2023/06/20 10:27:28;;;;;;;;;;;;;;;22.56;78.48;101046.53;4138173;28;20020;-66
2023/06/20 10:29:30;;;;;;;;;;;;;;;22.56;78.32;101051.22;4134662;28;20605;-65
2023/06/20 10:31:47;;;;;;;;;;;;;;;22.54;78.62;101043.19;4138644;28;20012;-66